sensor_id;sensor_type;location;lat;lon;timestamp;P1;durP1;ratioP1;P2;durP2;ratioP2
7729;SDS011;3908;52.310;7.230;2022-07-25T00:00:59;9.57;;;8.48;;
7729;SDS011;3908;52.310;7.230;2022-07-25T00:03:46;13.98;;;9.75;;
7729;SDS011;3908;52.310;7.230;2022-07-25T00:06:33;10.27;;;8.43;;
7729;SDS011;3908;52.310;7.230;2022-07-25T00:09:20;11.25;;;9.52;;
7729;SDS011;3908;52.310;7.230;2022-07-25T00:12:07;11.57;;;8.20;;
7729;SDS011;3908;52.310;7.230;2022-07-25T00:14:55;9.27;;;7.82;;
7729;SDS011;3908;52.310;7.230;2022-07-25T00:17:43;12.50;;;8.57;;
7729;SDS011;3908;52.310;7.230;2022-07-25T00:20:30;12.70;;;9.02;;
7729;SDS011;3908;52.310;7.230;2022-07-25T00:23:17;12.32;;;8.82;;
7729;SDS011;3908;52.310;7.230;2022-07-25T00:26:04;12.50;;;8.93;;
7729;SDS011;3908;52.310;7.230;2022-07-25T00:28:51;11.82;;;10.02;;
7729;SDS011;3908;52.310;7.230;2022-07-25T00:31:38;12.27;;;8.95;;
7729;SDS011;3908;52.310;7.230;2022-07-25T00:34:27;13.52;;;10.30;;
7729;SDS011;3908;52.310;7.230;2022-07-25T00:37:14;13.30;;;9.85;;
7729;SDS011;3908;52.310;7.230;2022-07-25T00:40:01;12.90;;;9.55;;
7729;SDS011;3908;52.310;7.230;2022-07-25T00:42:48;13.05;;;9.30;;
7729;SDS011;3908;52.310;7.230;2022-07-25T00:45:35;12.18;;;8.75;;
7729;SDS011;3908;52.310;7.230;2022-07-25T00:48:22;10.43;;;8.48;;
7729;SDS011;3908;52.310;7.230;2022-07-25T00:51:11;11.65;;;9.75;;
7729;SDS011;3908;52.310;7.230;2022-07-25T00:53:58;12.73;;;8.80;;
7729;SDS011;3908;52.310;7.230;2022-07-25T00:56:45;12.95;;;8.27;;
7729;SDS011;3908;52.310;7.230;2022-07-25T00:59:33;9.57;;;8.30;;
7729;SDS011;3908;52.310;7.230;2022-07-25T01:02:20;9.60;;;7.43;;
7729;SDS011;3908;52.310;7.230;2022-07-25T01:05:08;13.55;;;8.20;;
7729;SDS011;3908;52.310;7.230;2022-07-25T01:07:57;9.93;;;7.57;;
7729;SDS011;3908;52.310;7.230;2022-07-25T01:10:44;10.60;;;8.10;;
7729;SDS011;3908;52.310;7.230;2022-07-25T01:13:32;9.02;;;7.57;;
7729;SDS011;3908;52.310;7.230;2022-07-25T01:16:19;11.57;;;8.57;;
7729;SDS011;3908;52.310;7.230;2022-07-25T01:19:06;12.27;;;8.85;;
7729;SDS011;3908;52.310;7.230;2022-07-25T01:21:55;10.25;;;8.05;;
7729;SDS011;3908;52.310;7.230;2022-07-25T01:24:42;12.52;;;9.13;;
7729;SDS011;3908;52.310;7.230;2022-07-25T01:27:30;13.50;;;10.65;;
7729;SDS011;3908;52.310;7.230;2022-07-25T01:30:17;12.65;;;9.73;;
7729;SDS011;3908;52.310;7.230;2022-07-25T01:33:05;14.45;;;10.63;;
7729;SDS011;3908;52.310;7.230;2022-07-25T01:35:52;13.15;;;9.75;;
7729;SDS011;3908;52.310;7.230;2022-07-25T01:38:40;14.23;;;9.60;;
7729;SDS011;3908;52.310;7.230;2022-07-25T01:41:27;11.98;;;10.07;;
7729;SDS011;3908;52.310;7.230;2022-07-25T01:44:14;10.23;;;9.10;;
7729;SDS011;3908;52.310;7.230;2022-07-25T01:47:02;13.45;;;9.45;;
7729;SDS011;3908;52.310;7.230;2022-07-25T01:49:49;13.75;;;9.45;;
7729;SDS011;3908;52.310;7.230;2022-07-25T01:52:36;12.00;;;9.98;;
7729;SDS011;3908;52.310;7.230;2022-07-25T01:55:25;10.93;;;9.45;;
7729;SDS011;3908;52.310;7.230;2022-07-25T01:58:12;11.52;;;9.65;;
7729;SDS011;3908;52.310;7.230;2022-07-25T02:00:59;11.25;;;9.43;;
7729;SDS011;3908;52.310;7.230;2022-07-25T02:03:46;12.88;;;9.63;;
7729;SDS011;3908;52.310;7.230;2022-07-25T02:06:33;11.20;;;9.02;;
7729;SDS011;3908;52.310;7.230;2022-07-25T02:09:21;11.77;;;10.05;;
7729;SDS011;3908;52.310;7.230;2022-07-25T02:12:10;12.15;;;8.77;;
7729;SDS011;3908;52.310;7.230;2022-07-25T02:14:57;12.70;;;9.07;;
7729;SDS011;3908;52.310;7.230;2022-07-25T02:17:44;11.30;;;8.95;;
7729;SDS011;3908;52.310;7.230;2022-07-25T02:20:31;11.90;;;8.70;;
7729;SDS011;3908;52.310;7.230;2022-07-25T02:23:18;10.77;;;9.02;;
7729;SDS011;3908;52.310;7.230;2022-07-25T02:26:05;11.80;;;8.85;;
7729;SDS011;3908;52.310;7.230;2022-07-25T02:28:54;11.23;;;9.48;;
7729;SDS011;3908;52.310;7.230;2022-07-25T02:31:41;10.85;;;9.55;;
7729;SDS011;3908;52.310;7.230;2022-07-25T02:34:28;11.50;;;9.10;;
7729;SDS011;3908;52.310;7.230;2022-07-25T02:37:15;10.65;;;9.18;;
7729;SDS011;3908;52.310;7.230;2022-07-25T02:40:02;11.13;;;8.93;;
7729;SDS011;3908;52.310;7.230;2022-07-25T02:42:50;13.30;;;10.45;;
7729;SDS011;3908;52.310;7.230;2022-07-25T02:45:38;12.55;;;8.50;;
7729;SDS011;3908;52.310;7.230;2022-07-25T02:48:26;11.93;;;8.95;;
7729;SDS011;3908;52.310;7.230;2022-07-25T02:51:12;10.83;;;9.17;;
7729;SDS011;3908;52.310;7.230;2022-07-25T02:53:59;12.50;;;9.18;;
7729;SDS011;3908;52.310;7.230;2022-07-25T02:56:46;11.98;;;9.35;;
7729;SDS011;3908;52.310;7.230;2022-07-25T02:59:33;11.00;;;9.57;;
7729;SDS011;3908;52.310;7.230;2022-07-25T03:02:22;10.80;;;9.25;;
7729;SDS011;3908;52.310;7.230;2022-07-25T03:05:10;11.63;;;9.35;;
7729;SDS011;3908;52.310;7.230;2022-07-25T03:07:59;16.00;;;9.40;;
7729;SDS011;3908;52.310;7.230;2022-07-25T03:10:46;11.38;;;9.32;;
7729;SDS011;3908;52.310;7.230;2022-07-25T03:13:33;11.63;;;9.40;;
7729;SDS011;3908;52.310;7.230;2022-07-25T03:16:21;17.20;;;11.73;;
7729;SDS011;3908;52.310;7.230;2022-07-25T03:19:10;12.45;;;9.82;;
7729;SDS011;3908;52.310;7.230;2022-07-25T03:21:58;9.70;;;8.70;;
7729;SDS011;3908;52.310;7.230;2022-07-25T03:24:45;14.60;;;9.20;;
7729;SDS011;3908;52.310;7.230;2022-07-25T03:27:32;16.73;;;10.38;;
7729;SDS011;3908;52.310;7.230;2022-07-25T03:30:19;13.93;;;9.43;;
7729;SDS011;3908;52.310;7.230;2022-07-25T03:33:06;13.37;;;9.40;;
7729;SDS011;3908;52.310;7.230;2022-07-25T03:35:57;11.27;;;9.80;;
7729;SDS011;3908;52.310;7.230;2022-07-25T03:38:44;11.53;;;9.97;;
7729;SDS011;3908;52.310;7.230;2022-07-25T03:41:31;17.98;;;10.23;;
7729;SDS011;3908;52.310;7.230;2022-07-25T03:44:18;11.97;;;10.00;;
7729;SDS011;3908;52.310;7.230;2022-07-25T03:47:06;13.67;;;10.30;;
7729;SDS011;3908;52.310;7.230;2022-07-25T03:49:53;11.17;;;9.13;;
7729;SDS011;3908;52.310;7.230;2022-07-25T03:52:41;12.40;;;9.67;;
7729;SDS011;3908;52.310;7.230;2022-07-25T03:55:28;14.43;;;9.80;;
7729;SDS011;3908;52.310;7.230;2022-07-25T03:58:15;12.63;;;10.13;;
7729;SDS011;3908;52.310;7.230;2022-07-25T04:01:02;13.97;;;10.37;;
7729;SDS011;3908;52.310;7.230;2022-07-25T04:03:49;14.13;;;9.23;;
7729;SDS011;3908;52.310;7.230;2022-07-25T04:06:37;15.90;;;9.57;;
7729;SDS011;3908;52.310;7.230;2022-07-25T04:09:26;11.75;;;9.07;;
7729;SDS011;3908;52.310;7.230;2022-07-25T04:12:13;13.15;;;8.63;;
7729;SDS011;3908;52.310;7.230;2022-07-25T04:15:00;15.65;;;10.02;;
7729;SDS011;3908;52.310;7.230;2022-07-25T04:17:47;12.02;;;9.77;;
7729;SDS011;3908;52.310;7.230;2022-07-25T04:20:34;11.40;;;9.05;;
7729;SDS011;3908;52.310;7.230;2022-07-25T04:23:22;12.98;;;9.15;;
7729;SDS011;3908;52.310;7.230;2022-07-25T04:26:10;15.75;;;8.98;;
7729;SDS011;3908;52.310;7.230;2022-07-25T04:28:57;11.10;;;9.23;;
7729;SDS011;3908;52.310;7.230;2022-07-25T04:31:47;12.05;;;9.73;;
7729;SDS011;3908;52.310;7.230;2022-07-25T04:34:34;14.30;;;9.77;;
7729;SDS011;3908;52.310;7.230;2022-07-25T04:37:21;11.20;;;9.23;;
7729;SDS011;3908;52.310;7.230;2022-07-25T04:40:09;12.23;;;8.57;;
7729;SDS011;3908;52.310;7.230;2022-07-25T04:42:58;11.18;;;9.15;;
7729;SDS011;3908;52.310;7.230;2022-07-25T04:45:45;14.00;;;9.05;;
7729;SDS011;3908;52.310;7.230;2022-07-25T04:48:33;10.73;;;8.27;;
7729;SDS011;3908;52.310;7.230;2022-07-25T04:51:20;12.38;;;9.38;;
7729;SDS011;3908;52.310;7.230;2022-07-25T04:54:07;12.63;;;9.05;;
7729;SDS011;3908;52.310;7.230;2022-07-25T04:56:54;13.75;;;9.00;;
7729;SDS011;3908;52.310;7.230;2022-07-25T04:59:43;10.65;;;8.93;;
7729;SDS011;3908;52.310;7.230;2022-07-25T05:02:30;13.18;;;9.27;;
7729;SDS011;3908;52.310;7.230;2022-07-25T05:05:17;13.38;;;9.52;;
7729;SDS011;3908;52.310;7.230;2022-07-25T05:08:05;11.65;;;9.48;;
7729;SDS011;3908;52.310;7.230;2022-07-25T05:10:52;11.38;;;10.18;;
7729;SDS011;3908;52.310;7.230;2022-07-25T05:13:39;11.57;;;9.85;;
7729;SDS011;3908;52.310;7.230;2022-07-25T05:16:27;12.32;;;10.15;;
7729;SDS011;3908;52.310;7.230;2022-07-25T05:19:14;11.35;;;9.25;;
7729;SDS011;3908;52.310;7.230;2022-07-25T05:22:02;17.13;;;10.13;;
7729;SDS011;3908;52.310;7.230;2022-07-25T05:24:49;12.60;;;9.73;;
7729;SDS011;3908;52.310;7.230;2022-07-25T05:27:36;11.93;;;9.48;;
7729;SDS011;3908;52.310;7.230;2022-07-25T05:30:24;11.75;;;9.25;;
7729;SDS011;3908;52.310;7.230;2022-07-25T05:33:13;14.27;;;10.20;;
7729;SDS011;3908;52.310;7.230;2022-07-25T05:36:00;13.55;;;10.40;;
7729;SDS011;3908;52.310;7.230;2022-07-25T05:38:48;13.85;;;8.73;;
7729;SDS011;3908;52.310;7.230;2022-07-25T05:41:35;11.52;;;9.25;;
7729;SDS011;3908;52.310;7.230;2022-07-25T05:44:22;11.25;;;9.27;;
7729;SDS011;3908;52.310;7.230;2022-07-25T05:47:10;11.40;;;9.20;;
7729;SDS011;3908;52.310;7.230;2022-07-25T05:49:58;10.05;;;8.80;;
7729;SDS011;3908;52.310;7.230;2022-07-25T05:52:45;10.60;;;7.88;;
7729;SDS011;3908;52.310;7.230;2022-07-25T05:55:33;10.18;;;8.27;;
7729;SDS011;3908;52.310;7.230;2022-07-25T05:58:20;13.13;;;8.27;;
7729;SDS011;3908;52.310;7.230;2022-07-25T06:01:07;12.65;;;8.45;;
7729;SDS011;3908;52.310;7.230;2022-07-25T06:03:56;8.60;;;7.63;;
7729;SDS011;3908;52.310;7.230;2022-07-25T06:06:45;13.80;;;8.27;;
7729;SDS011;3908;52.310;7.230;2022-07-25T06:09:35;11.98;;;8.25;;
7729;SDS011;3908;52.310;7.230;2022-07-25T06:12:23;8.93;;;7.90;;
7729;SDS011;3908;52.310;7.230;2022-07-25T06:15:10;10.80;;;8.15;;
7729;SDS011;3908;52.310;7.230;2022-07-25T06:17:57;14.13;;;7.30;;
7729;SDS011;3908;52.310;7.230;2022-07-25T06:20:44;9.38;;;7.05;;
7729;SDS011;3908;52.310;7.230;2022-07-25T06:23:33;9.70;;;7.82;;
7729;SDS011;3908;52.310;7.230;2022-07-25T06:26:20;9.82;;;7.80;;
7729;SDS011;3908;52.310;7.230;2022-07-25T06:29:09;8.27;;;7.05;;
7729;SDS011;3908;52.310;7.230;2022-07-25T06:31:56;7.72;;;6.30;;
7729;SDS011;3908;52.310;7.230;2022-07-25T06:34:43;10.73;;;7.75;;
7729;SDS011;3908;52.310;7.230;2022-07-25T06:37:30;7.50;;;6.00;;
7729;SDS011;3908;52.310;7.230;2022-07-25T06:40:18;8.38;;;6.30;;
7729;SDS011;3908;52.310;7.230;2022-07-25T06:43:06;8.07;;;6.60;;
7729;SDS011;3908;52.310;7.230;2022-07-25T06:45:53;7.15;;;5.90;;
7729;SDS011;3908;52.310;7.230;2022-07-25T06:48:40;9.13;;;5.57;;
7729;SDS011;3908;52.310;7.230;2022-07-25T06:51:27;11.75;;;5.80;;
7729;SDS011;3908;52.310;7.230;2022-07-25T06:54:14;7.55;;;5.78;;
7729;SDS011;3908;52.310;7.230;2022-07-25T06:57:04;9.27;;;6.07;;
7729;SDS011;3908;52.310;7.230;2022-07-25T06:59:51;20.35;;;6.65;;
7729;SDS011;3908;52.310;7.230;2022-07-25T07:02:51;9.60;;;5.93;;
7729;SDS011;3908;52.310;7.230;2022-07-25T07:05:41;8.23;;;5.50;;
7729;SDS011;3908;52.310;7.230;2022-07-25T07:08:28;11.70;;;5.82;;
7729;SDS011;3908;52.310;7.230;2022-07-25T07:11:15;5.22;;;4.68;;
7729;SDS011;3908;52.310;7.230;2022-07-25T07:14:04;7.38;;;5.53;;
7729;SDS011;3908;52.310;7.230;2022-07-25T07:16:51;6.18;;;5.05;;
7729;SDS011;3908;52.310;7.230;2022-07-25T07:19:38;6.38;;;5.03;;
7729;SDS011;3908;52.310;7.230;2022-07-25T07:22:28;6.47;;;4.88;;
7729;SDS011;3908;52.310;7.230;2022-07-25T07:25:16;6.40;;;4.85;;
7729;SDS011;3908;52.310;7.230;2022-07-25T07:28:05;7.18;;;5.00;;
7729;SDS011;3908;52.310;7.230;2022-07-25T07:30:53;8.43;;;4.75;;
7729;SDS011;3908;52.310;7.230;2022-07-25T07:33:41;8.65;;;5.00;;
7729;SDS011;3908;52.310;7.230;2022-07-25T07:36:28;9.82;;;5.18;;
7729;SDS011;3908;52.310;7.230;2022-07-25T07:39:15;6.72;;;5.32;;
7729;SDS011;3908;52.310;7.230;2022-07-25T07:42:02;5.78;;;5.18;;
7729;SDS011;3908;52.310;7.230;2022-07-25T07:44:49;6.75;;;5.43;;
7729;SDS011;3908;52.310;7.230;2022-07-25T07:47:38;7.35;;;5.18;;
7729;SDS011;3908;52.310;7.230;2022-07-25T07:50:25;8.48;;;4.97;;
7729;SDS011;3908;52.310;7.230;2022-07-25T07:53:13;7.47;;;5.22;;
7729;SDS011;3908;52.310;7.230;2022-07-25T07:56:00;8.32;;;4.80;;
7729;SDS011;3908;52.310;7.230;2022-07-25T07:58:46;9.70;;;5.03;;
7729;SDS011;3908;52.310;7.230;2022-07-25T08:01:33;7.20;;;4.78;;
7729;SDS011;3908;52.310;7.230;2022-07-25T08:04:22;8.93;;;5.03;;
7729;SDS011;3908;52.310;7.230;2022-07-25T08:07:09;6.60;;;5.55;;
7729;SDS011;3908;52.310;7.230;2022-07-25T08:09:56;7.13;;;5.28;;
7729;SDS011;3908;52.310;7.230;2022-07-25T08:12:43;6.05;;;5.05;;
7729;SDS011;3908;52.310;7.230;2022-07-25T08:15:30;7.25;;;4.85;;
7729;SDS011;3908;52.310;7.230;2022-07-25T08:18:17;7.85;;;4.97;;
7729;SDS011;3908;52.310;7.230;2022-07-25T08:21:06;6.57;;;5.05;;
7729;SDS011;3908;52.310;7.230;2022-07-25T08:23:53;8.00;;;5.82;;
7729;SDS011;3908;52.310;7.230;2022-07-25T08:26:42;7.60;;;5.00;;
7729;SDS011;3908;52.310;7.230;2022-07-25T08:29:29;9.50;;;5.30;;
7729;SDS011;3908;52.310;7.230;2022-07-25T08:32:16;7.15;;;5.13;;
7729;SDS011;3908;52.310;7.230;2022-07-25T08:35:03;6.68;;;5.25;;
7729;SDS011;3908;52.310;7.230;2022-07-25T08:37:53;10.82;;;5.72;;
7729;SDS011;3908;52.310;7.230;2022-07-25T08:40:40;9.80;;;5.70;;
7729;SDS011;3908;52.310;7.230;2022-07-25T08:43:28;6.78;;;5.22;;
7729;SDS011;3908;52.310;7.230;2022-07-25T08:46:17;7.22;;;5.18;;
7729;SDS011;3908;52.310;7.230;2022-07-25T08:49:04;8.57;;;6.25;;
7729;SDS011;3908;52.310;7.230;2022-07-25T08:51:52;9.23;;;5.15;;
7729;SDS011;3908;52.310;7.230;2022-07-25T08:54:42;9.23;;;5.60;;
7729;SDS011;3908;52.310;7.230;2022-07-25T08:57:31;9.38;;;5.57;;
7729;SDS011;3908;52.310;7.230;2022-07-25T09:00:20;6.88;;;5.45;;
7729;SDS011;3908;52.310;7.230;2022-07-25T09:03:09;6.97;;;6.20;;
7729;SDS011;3908;52.310;7.230;2022-07-25T09:05:57;8.23;;;5.80;;
7729;SDS011;3908;52.310;7.230;2022-07-25T09:08:54;9.93;;;7.32;;
7729;SDS011;3908;52.310;7.230;2022-07-25T09:11:45;9.52;;;6.72;;
7729;SDS011;3908;52.310;7.230;2022-07-25T09:14:39;8.77;;;6.07;;
7729;SDS011;3908;52.310;7.230;2022-07-25T09:17:27;6.53;;;5.40;;
7729;SDS011;3908;52.310;7.230;2022-07-25T09:20:14;10.10;;;6.00;;
7729;SDS011;3908;52.310;7.230;2022-07-25T09:23:01;8.05;;;6.20;;
7729;SDS011;3908;52.310;7.230;2022-07-25T09:25:48;8.68;;;6.10;;
7729;SDS011;3908;52.310;7.230;2022-07-25T09:28:39;8.15;;;6.38;;
7729;SDS011;3908;52.310;7.230;2022-07-25T09:31:30;9.88;;;5.90;;
7729;SDS011;3908;52.310;7.230;2022-07-25T09:34:28;8.45;;;6.45;;
7729;SDS011;3908;52.310;7.230;2022-07-25T09:37:19;9.60;;;6.40;;
7729;SDS011;3908;52.310;7.230;2022-07-25T09:40:12;10.00;;;6.13;;
7729;SDS011;3908;52.310;7.230;2022-07-25T09:43:00;9.63;;;6.63;;
7729;SDS011;3908;52.310;7.230;2022-07-25T09:45:49;8.32;;;6.38;;
7729;SDS011;3908;52.310;7.230;2022-07-25T09:48:38;9.15;;;7.45;;
7729;SDS011;3908;52.310;7.230;2022-07-25T09:51:26;11.57;;;7.07;;
7729;SDS011;3908;52.310;7.230;2022-07-25T09:54:13;8.25;;;7.35;;
7729;SDS011;3908;52.310;7.230;2022-07-25T09:57:01;9.73;;;6.80;;
7729;SDS011;3908;52.310;7.230;2022-07-25T09:59:48;11.65;;;7.70;;
7729;SDS011;3908;52.310;7.230;2022-07-25T10:02:40;9.23;;;7.40;;
7729;SDS011;3908;52.310;7.230;2022-07-25T10:05:37;12.57;;;6.80;;
7729;SDS011;3908;52.310;7.230;2022-07-25T10:08:36;11.35;;;7.28;;
7729;SDS011;3908;52.310;7.230;2022-07-25T10:11:25;13.90;;;8.13;;
7729;SDS011;3908;52.310;7.230;2022-07-25T10:14:14;9.60;;;6.65;;
7729;SDS011;3908;52.310;7.230;2022-07-25T10:17:01;9.02;;;7.43;;
7729;SDS011;3908;52.310;7.230;2022-07-25T10:19:51;13.60;;;7.22;;
7729;SDS011;3908;52.310;7.230;2022-07-25T10:22:38;9.27;;;7.70;;
7729;SDS011;3908;52.310;7.230;2022-07-25T10:25:26;11.98;;;7.65;;
7729;SDS011;3908;52.310;7.230;2022-07-25T10:28:17;12.93;;;7.10;;
7729;SDS011;3908;52.310;7.230;2022-07-25T10:34:26;9.23;;;7.15;;
7729;SDS011;3908;52.310;7.230;2022-07-25T10:37:17;9.90;;;6.60;;
7729;SDS011;3908;52.310;7.230;2022-07-25T10:40:12;8.57;;;6.88;;
7729;SDS011;3908;52.310;7.230;2022-07-25T10:43:12;13.68;;;7.55;;
7729;SDS011;3908;52.310;7.230;2022-07-25T10:46:09;7.97;;;6.57;;
7729;SDS011;3908;52.310;7.230;2022-07-25T10:49:01;9.52;;;7.20;;
7729;SDS011;3908;52.310;7.230;2022-07-25T10:51:54;11.27;;;7.85;;
7729;SDS011;3908;52.310;7.230;2022-07-25T10:54:52;11.02;;;7.57;;
7729;SDS011;3908;52.310;7.230;2022-07-25T10:57:40;12.30;;;6.93;;
7729;SDS011;3908;52.310;7.230;2022-07-25T11:00:27;11.77;;;8.02;;
7729;SDS011;3908;52.310;7.230;2022-07-25T11:03:15;12.05;;;7.78;;
7729;SDS011;3908;52.310;7.230;2022-07-25T11:06:02;10.18;;;7.78;;
7729;SDS011;3908;52.310;7.230;2022-07-25T11:08:49;9.40;;;6.90;;
7729;SDS011;3908;52.310;7.230;2022-07-25T11:11:43;10.07;;;7.00;;
7729;SDS011;3908;52.310;7.230;2022-07-25T11:14:35;10.98;;;6.15;;
7729;SDS011;3908;52.310;7.230;2022-07-25T11:17:25;7.05;;;4.70;;
7729;SDS011;3908;52.310;7.230;2022-07-25T11:20:14;5.78;;;4.75;;
7729;SDS011;3908;52.310;7.230;2022-07-25T11:23:02;7.07;;;5.40;;
7729;SDS011;3908;52.310;7.230;2022-07-25T11:25:49;9.35;;;4.90;;
7729;SDS011;3908;52.310;7.230;2022-07-25T11:28:42;9.38;;;4.80;;
7729;SDS011;3908;52.310;7.230;2022-07-25T11:31:31;6.85;;;4.18;;
7729;SDS011;3908;52.310;7.230;2022-07-25T11:34:20;5.00;;;3.75;;
7729;SDS011;3908;52.310;7.230;2022-07-25T11:37:10;4.57;;;3.47;;
7729;SDS011;3908;52.310;7.230;2022-07-25T11:39:59;4.82;;;3.80;;
7729;SDS011;3908;52.310;7.230;2022-07-25T11:42:47;7.53;;;3.72;;
7729;SDS011;3908;52.310;7.230;2022-07-25T11:45:37;6.45;;;3.53;;
7729;SDS011;3908;52.310;7.230;2022-07-25T11:48:29;6.80;;;3.10;;
7729;SDS011;3908;52.310;7.230;2022-07-25T11:51:21;4.38;;;3.30;;
7729;SDS011;3908;52.310;7.230;2022-07-25T11:54:09;4.78;;;3.30;;
7729;SDS011;3908;52.310;7.230;2022-07-25T11:56:57;5.22;;;3.67;;
7729;SDS011;3908;52.310;7.230;2022-07-25T11:59:45;4.10;;;3.50;;
7729;SDS011;3908;52.310;7.230;2022-07-25T12:02:33;5.00;;;3.50;;
7729;SDS011;3908;52.310;7.230;2022-07-25T12:05:30;6.63;;;3.25;;
7729;SDS011;3908;52.310;7.230;2022-07-25T12:08:19;3.38;;;3.08;;
7729;SDS011;3908;52.310;7.230;2022-07-25T12:11:17;4.30;;;3.47;;
7729;SDS011;3908;52.310;7.230;2022-07-25T12:14:05;4.88;;;3.97;;
7729;SDS011;3908;52.310;7.230;2022-07-25T12:16:53;5.82;;;4.45;;
7729;SDS011;3908;52.310;7.230;2022-07-25T12:19:43;5.53;;;3.72;;
7729;SDS011;3908;52.310;7.230;2022-07-25T12:22:31;5.47;;;3.70;;
7729;SDS011;3908;52.310;7.230;2022-07-25T12:25:18;4.47;;;3.00;;
7729;SDS011;3908;52.310;7.230;2022-07-25T12:28:05;5.05;;;2.80;;
7729;SDS011;3908;52.310;7.230;2022-07-25T12:30:54;2.63;;;2.42;;
7729;SDS011;3908;52.310;7.230;2022-07-25T12:33:41;5.00;;;3.30;;
7729;SDS011;3908;52.310;7.230;2022-07-25T12:36:30;5.00;;;2.90;;
7729;SDS011;3908;52.310;7.230;2022-07-25T12:39:18;9.35;;;2.63;;
7729;SDS011;3908;52.310;7.230;2022-07-25T12:42:05;3.65;;;3.00;;
7729;SDS011;3908;52.310;7.230;2022-07-25T12:44:52;3.13;;;2.70;;
7729;SDS011;3908;52.310;7.230;2022-07-25T12:47:41;4.13;;;2.33;;
7729;SDS011;3908;52.310;7.230;2022-07-25T12:50:28;4.28;;;2.08;;
7729;SDS011;3908;52.310;7.230;2022-07-25T12:53:16;3.75;;;1.98;;
7729;SDS011;3908;52.310;7.230;2022-07-25T12:56:04;2.30;;;2.00;;
7729;SDS011;3908;52.310;7.230;2022-07-25T12:58:51;6.38;;;5.72;;
7729;SDS011;3908;52.310;7.230;2022-07-25T13:01:39;4.47;;;3.10;;
7729;SDS011;3908;52.310;7.230;2022-07-25T13:04:26;3.33;;;1.83;;
7729;SDS011;3908;52.310;7.230;2022-07-25T13:07:13;6.25;;;2.08;;
7729;SDS011;3908;52.310;7.230;2022-07-25T13:10:02;3.88;;;2.30;;
7729;SDS011;3908;52.310;7.230;2022-07-25T13:12:50;3.17;;;1.75;;
7729;SDS011;3908;52.310;7.230;2022-07-25T13:15:38;3.15;;;1.80;;
7729;SDS011;3908;52.310;7.230;2022-07-25T13:18:25;4.65;;;1.40;;
7729;SDS011;3908;52.310;7.230;2022-07-25T13:21:12;7.20;;;1.92;;
7729;SDS011;3908;52.310;7.230;2022-07-25T13:23:59;3.05;;;1.70;;
7729;SDS011;3908;52.310;7.230;2022-07-25T13:26:48;4.78;;;1.85;;
7729;SDS011;3908;52.310;7.230;2022-07-25T13:29:35;3.72;;;2.28;;
7729;SDS011;3908;52.310;7.230;2022-07-25T13:32:24;4.28;;;2.00;;
7729;SDS011;3908;52.310;7.230;2022-07-25T13:35:12;5.68;;;1.67;;
7729;SDS011;3908;52.310;7.230;2022-07-25T13:37:59;2.38;;;1.70;;
7729;SDS011;3908;52.310;7.230;2022-07-25T13:40:46;3.80;;;2.03;;
7729;SDS011;3908;52.310;7.230;2022-07-25T13:43:35;4.65;;;1.98;;
7729;SDS011;3908;52.310;7.230;2022-07-25T13:46:22;3.13;;;1.90;;
7729;SDS011;3908;52.310;7.230;2022-07-25T13:49:10;3.13;;;1.70;;
7729;SDS011;3908;52.310;7.230;2022-07-25T13:51:57;1.90;;;1.70;;
7729;SDS011;3908;52.310;7.230;2022-07-25T13:54:44;4.90;;;2.13;;
7729;SDS011;3908;52.310;7.230;2022-07-25T13:57:31;3.97;;;2.00;;
7729;SDS011;3908;52.310;7.230;2022-07-25T14:00:20;5.80;;;2.13;;
7729;SDS011;3908;52.310;7.230;2022-07-25T14:03:07;3.88;;;1.85;;
7729;SDS011;3908;52.310;7.230;2022-07-25T14:05:54;4.13;;;1.90;;
7729;SDS011;3908;52.310;7.230;2022-07-25T14:08:42;7.18;;;1.98;;
7729;SDS011;3908;52.310;7.230;2022-07-25T14:11:30;3.58;;;1.83;;
7729;SDS011;3908;52.310;7.230;2022-07-25T14:14:17;4.13;;;1.63;;
7729;SDS011;3908;52.310;7.230;2022-07-25T14:17:05;6.00;;;1.73;;
7729;SDS011;3908;52.310;7.230;2022-07-25T14:19:52;4.45;;;2.00;;
7729;SDS011;3908;52.310;7.230;2022-07-25T14:22:41;5.82;;;2.00;;
7729;SDS011;3908;52.310;7.230;2022-07-25T14:25:28;4.28;;;2.00;;
7729;SDS011;3908;52.310;7.230;2022-07-25T14:28:15;5.68;;;2.22;;
7729;SDS011;3908;52.310;7.230;2022-07-25T14:31:03;3.38;;;2.00;;
7729;SDS011;3908;52.310;7.230;2022-07-25T14:33:52;5.57;;;2.25;;
7729;SDS011;3908;52.310;7.230;2022-07-25T14:36:39;5.18;;;2.03;;
7729;SDS011;3908;52.310;7.230;2022-07-25T14:39:29;5.22;;;2.20;;
7729;SDS011;3908;52.310;7.230;2022-07-25T14:42:17;3.92;;;1.92;;
7729;SDS011;3908;52.310;7.230;2022-07-25T14:45:05;3.67;;;1.90;;
7729;SDS011;3908;52.310;7.230;2022-07-25T14:47:52;4.72;;;2.05;;
7729;SDS011;3908;52.310;7.230;2022-07-25T14:50:41;5.10;;;2.08;;
7729;SDS011;3908;52.310;7.230;2022-07-25T14:53:28;5.85;;;2.00;;
7729;SDS011;3908;52.310;7.230;2022-07-25T14:56:15;6.97;;;2.65;;
7729;SDS011;3908;52.310;7.230;2022-07-25T14:59:03;9.25;;;2.33;;
7729;SDS011;3908;52.310;7.230;2022-07-25T15:01:50;7.60;;;2.30;;
7729;SDS011;3908;52.310;7.230;2022-07-25T15:04:37;5.43;;;2.55;;
7729;SDS011;3908;52.310;7.230;2022-07-25T15:07:25;4.15;;;2.83;;
7729;SDS011;3908;52.310;7.230;2022-07-25T15:10:12;6.85;;;2.83;;
7729;SDS011;3908;52.310;7.230;2022-07-25T15:12:59;8.25;;;3.05;;
7729;SDS011;3908;52.310;7.230;2022-07-25T15:15:47;6.90;;;2.80;;
7729;SDS011;3908;52.310;7.230;2022-07-25T15:18:34;6.38;;;2.63;;
7729;SDS011;3908;52.310;7.230;2022-07-25T15:21:21;6.35;;;3.22;;
7729;SDS011;3908;52.310;7.230;2022-07-25T15:24:09;13.30;;;3.10;;
7729;SDS011;3908;52.310;7.230;2022-07-25T15:26:57;14.55;;;3.30;;
7729;SDS011;3908;52.310;7.230;2022-07-25T15:29:44;4.43;;;2.55;;
7729;SDS011;3908;52.310;7.230;2022-07-25T15:32:31;7.38;;;2.65;;
7729;SDS011;3908;52.310;7.230;2022-07-25T15:35:18;7.53;;;2.78;;
7729;SDS011;3908;52.310;7.230;2022-07-25T15:38:06;5.80;;;2.67;;
7729;SDS011;3908;52.310;7.230;2022-07-25T15:40:54;4.90;;;3.00;;
7729;SDS011;3908;52.310;7.230;2022-07-25T15:43:42;7.47;;;3.08;;
7729;SDS011;3908;52.310;7.230;2022-07-25T15:46:29;4.95;;;2.83;;
7729;SDS011;3908;52.310;7.230;2022-07-25T15:49:17;6.20;;;2.83;;
7729;SDS011;3908;52.310;7.230;2022-07-25T15:52:06;4.85;;;2.67;;
7729;SDS011;3908;52.310;7.230;2022-07-25T15:54:53;6.18;;;2.65;;
7729;SDS011;3908;52.310;7.230;2022-07-25T15:57:42;7.25;;;2.45;;
7729;SDS011;3908;52.310;7.230;2022-07-25T16:00:29;4.38;;;2.65;;
7729;SDS011;3908;52.310;7.230;2022-07-25T16:03:16;14.48;;;6.70;;
7729;SDS011;3908;52.310;7.230;2022-07-25T16:06:03;6.50;;;3.63;;
7729;SDS011;3908;52.310;7.230;2022-07-25T16:08:50;6.03;;;2.92;;
7729;SDS011;3908;52.310;7.230;2022-07-25T16:11:37;6.47;;;2.33;;
7729;SDS011;3908;52.310;7.230;2022-07-25T16:14:26;7.50;;;2.95;;
7729;SDS011;3908;52.310;7.230;2022-07-25T16:17:13;3.45;;;2.45;;
7729;SDS011;3908;52.310;7.230;2022-07-25T16:20:00;7.63;;;2.58;;
7729;SDS011;3908;52.310;7.230;2022-07-25T16:22:48;6.38;;;2.28;;
7729;SDS011;3908;52.310;7.230;2022-07-25T16:25:40;5.60;;;2.40;;
7729;SDS011;3908;52.310;7.230;2022-07-25T16:28:27;5.57;;;2.95;;
7729;SDS011;3908;52.310;7.230;2022-07-25T16:31:15;6.25;;;2.47;;
7729;SDS011;3908;52.310;7.230;2022-07-25T16:34:02;4.07;;;2.17;;
7729;SDS011;3908;52.310;7.230;2022-07-25T16:36:50;8.88;;;2.65;;
7729;SDS011;3908;52.310;7.230;2022-07-25T16:39:38;4.10;;;2.35;;
7729;SDS011;3908;52.310;7.230;2022-07-25T16:42:25;6.90;;;2.40;;
7729;SDS011;3908;52.310;7.230;2022-07-25T16:45:12;5.78;;;2.38;;
7729;SDS011;3908;52.310;7.230;2022-07-25T16:48:01;5.38;;;2.45;;
7729;SDS011;3908;52.310;7.230;2022-07-25T16:50:48;7.60;;;3.67;;
7729;SDS011;3908;52.310;7.230;2022-07-25T16:53:36;7.07;;;2.60;;
7729;SDS011;3908;52.310;7.230;2022-07-25T16:56:23;8.32;;;2.67;;
7729;SDS011;3908;52.310;7.230;2022-07-25T16:59:10;5.63;;;2.20;;
7729;SDS011;3908;52.310;7.230;2022-07-25T17:01:57;6.20;;;2.42;;
7729;SDS011;3908;52.310;7.230;2022-07-25T17:04:45;8.32;;;2.30;;
7729;SDS011;3908;52.310;7.230;2022-07-25T17:07:32;7.25;;;2.05;;
7729;SDS011;3908;52.310;7.230;2022-07-25T17:10:21;7.00;;;2.42;;
7729;SDS011;3908;52.310;7.230;2022-07-25T17:13:09;6.38;;;2.10;;
7729;SDS011;3908;52.310;7.230;2022-07-25T17:15:56;6.75;;;2.30;;
7729;SDS011;3908;52.310;7.230;2022-07-25T17:18:43;8.05;;;1.90;;